Time;durP1;ratioP1;P1;durP2;ratioP2;P2;SDS_P1;SDS_P2;PMS_P1;PMS_P2;Temp;Humidity;BMP_temperature;BMP_pressure;BME280_temperature;BME280_humidity;BME280_pressure;Samples;Min_cycle;Max_cycle;Signal;HPM_P1;HPM_P2
2022/09/01 00:02:07;;;;;;;3.50;3.20;;;14.90;99.90;16.10;96951.00;;;;5060215;28;20203;-84
2022/09/01 00:04:57;;;;;;;5.27;3.00;;;14.80;99.90;16.10;96954.00;;;;5061396;28;20204;-84
2022/09/01 00:07:45;;;;;;;4.43;4.03;;;14.80;99.90;16.10;96949.00;;;;5063958;28;20231;-84
2022/09/01 00:10:34;;;;;;;3.70;3.37;;;14.80;99.90;16.10;96946.00;;;;5061769;28;20193;-83
2022/09/01 00:13:24;;;;;;;6.80;3.37;;;14.80;99.90;16.00;96942.00;;;;5060971;28;20200;-84
2022/09/01 00:16:16;;;;;;;4.60;3.23;;;14.80;99.90;16.10;96951.00;;;;5065227;28;20926;-84
2022/09/01 00:19:05;;;;;;;3.47;3.17;;;14.80;99.90;16.10;96947.00;;;;5061615;28;20749;-83
2022/09/01 00:21:54;;;;;;;4.00;3.43;;;14.80;99.90;16.10;96950.00;;;;5068516;28;20193;-83
2022/09/01 00:24:43;;;;;;;4.07;3.73;;;14.80;99.90;16.10;96952.00;;;;5057950;28;20208;-84
2022/09/01 00:27:32;;;;;;;4.90;3.17;;;14.80;99.90;15.90;96943.00;;;;5064284;28;20232;-83
2022/09/01 00:30:22;;;;;;;3.90;3.50;;;14.80;99.90;16.00;96946.00;;;;5061432;28;20219;-84
2022/09/01 00:33:11;;;;;;;3.50;3.20;;;14.70;99.90;16.00;96948.00;;;;5055936;28;20646;-84
2022/09/01 00:36:00;;;;;;;3.07;2.77;;;14.70;99.90;15.90;96941.00;;;;5066673;28;20235;-83
2022/09/01 00:38:50;;;;;;;2.97;2.63;;;14.70;99.90;15.90;96939.00;;;;5060577;28;20197;-84
2022/09/01 00:41:43;;;;;;;3.67;3.37;;;14.70;99.90;15.90;96943.00;;;;5067424;28;20191;-84
2022/09/01 00:44:33;;;;;;;4.00;3.10;;;14.70;99.90;15.80;96938.00;;;;5064877;28;20571;-84
2022/09/01 00:47:23;;;;;;;3.83;3.43;;;14.70;99.90;15.90;96938.00;;;;5068916;28;20705;-84
2022/09/01 00:50:15;;;;;;;5.13;3.43;;;14.60;99.90;15.90;96936.00;;;;5065257;28;20192;-84
2022/09/01 00:53:06;;;;;;;3.73;3.43;;;14.60;99.90;15.90;96931.00;;;;5065930;28;20584;-83
2022/09/01 00:55:57;;;;;;;6.43;4.03;;;14.60;99.90;15.70;96937.00;;;;5060217;28;20239;-83
2022/09/01 00:58:45;;;;;;;3.63;3.33;;;14.60;99.90;15.80;96934.00;;;;5066009;28;20208;-84
2022/09/01 01:01:35;;;;;;;4.13;3.73;;;14.60;99.90;15.70;96945.00;;;;5061061;28;20196;-84
2022/09/01 01:04:26;;;;;;;4.90;3.73;;;14.50;99.90;15.70;96947.00;;;;5065243;28;20211;-84
2022/09/01 01:07:16;;;;;;;4.63;4.23;;;14.60;99.90;15.80;96947.00;;;;5059653;28;20221;-84
2022/09/01 01:10:06;;;;;;;3.73;3.33;;;14.50;99.90;15.90;96946.00;;;;5064383;28;21105;-84
2022/09/01 01:12:55;;;;;;;3.93;3.63;;;14.60;99.90;15.80;96946.00;;;;5061887;28;20204;-83
2022/09/01 01:15:44;;;;;;;4.40;3.90;;;14.60;99.90;15.90;96952.00;;;;5065123;28;20218;-83
2022/09/01 01:18:33;;;;;;;4.10;3.80;;;14.60;99.90;15.90;96941.00;;;;5068093;28;20200;-83
2022/09/01 01:24:44;;;;;;;4.13;3.83;;;14.60;99.90;15.90;96947.00;;;;5033736;28;20211;-84
2022/09/01 01:27:34;;;;;;;3.67;3.37;;;14.60;99.90;16.00;96953.00;;;;5057540;28;20233;-82
2022/09/01 01:30:23;;;;;;;4.07;3.63;;;14.70;99.90;15.90;96947.00;;;;5060314;28;20189;-84
2022/09/01 01:33:12;;;;;;;4.10;3.80;;;14.70;99.90;15.90;96952.00;;;;5070933;28;20200;-82
2022/09/01 01:36:01;;;;;;;4.93;3.50;;;14.70;99.90;15.90;96948.00;;;;5068151;28;20227;-84
2022/09/01 01:38:51;;;;;;;3.83;3.50;;;14.70;99.90;15.90;96950.00;;;;5064841;28;20193;-84
2022/09/01 01:41:47;;;;;;;6.50;3.93;;;14.60;99.90;16.00;96955.00;;;;5067865;28;20199;-84
2022/09/01 01:44:37;;;;;;;3.80;3.50;;;14.70;99.90;15.90;96944.00;;;;5069884;28;20215;-83
2022/09/01 01:47:26;;;;;;;3.60;3.30;;;14.60;99.90;15.90;96952.00;;;;5063864;23;20255;-73
2022/09/01 01:50:15;;;;;;;4.80;4.30;;;14.60;99.90;15.90;96948.00;;;;5046288;28;20211;-73
2022/09/01 01:53:07;;;;;;;4.00;3.60;;;14.60;99.90;15.90;96951.00;;;;5031450;28;20197;-73
2022/09/01 01:55:57;;;;;;;10.30;4.10;;;14.60;99.90;15.80;96947.00;;;;5027256;28;20723;-73
2022/09/01 01:58:47;;;;;;;3.50;3.20;;;14.60;99.90;15.90;96941.00;;;;5012425;28;20209;-73
2022/09/01 02:01:38;;;;;;;5.03;3.57;;;14.60;99.90;15.90;96939.00;;;;5011485;28;20217;-73
2022/09/01 02:04:32;;;;;;;4.43;4.03;;;14.60;99.90;15.80;96942.00;;;;5020989;28;20202;-73
2022/09/01 02:07:21;;;;;;;5.97;4.33;;;14.60;99.90;15.80;96937.00;;;;5018612;28;20764;-73
2022/09/01 02:10:11;;;;;;;4.70;4.30;;;14.60;99.90;15.70;96934.00;;;;5016581;28;20220;-73
2022/09/01 02:13:06;;;;;;;4.20;3.90;;;14.50;99.90;15.80;96940.00;;;;5020552;28;20201;-73
2022/09/01 02:15:57;;;;;;;5.93;4.00;;;14.60;99.90;15.80;96943.00;;;;5016475;28;20221;-73
2022/09/01 02:18:48;;;;;;;4.50;4.10;;;14.50;99.90;15.90;96942.00;;;;5021699;28;20210;-73
2022/09/01 02:21:37;;;;;;;6.13;4.83;;;14.60;99.90;15.80;96944.00;;;;5012358;28;20198;-73
2022/09/01 02:24:29;;;;;;;4.13;3.83;;;14.50;99.90;15.80;96941.00;;;;5019756;28;20202;-73
2022/09/01 02:27:20;;;;;;;4.37;3.97;;;14.50;99.90;15.80;96939.00;;;;5016232;28;20230;-73
2022/09/01 02:30:11;;;;;;;4.63;4.23;;;14.60;99.90;15.70;96946.00;;;;5024504;28;20202;-73
2022/09/01 02:33:01;;;;;;;4.00;3.63;;;14.50;99.90;15.60;96940.00;;;;5019189;28;20213;-73
2022/09/01 02:35:54;;;;;;;4.20;3.80;;;14.50;99.90;15.60;96932.00;;;;5039941;22;20241;-70
2022/09/01 02:38:44;;;;;;;7.07;4.00;;;14.40;99.90;15.60;96942.00;;;;5031275;28;20208;-70
2022/09/01 02:41:33;;;;;;;4.87;4.37;;;14.40;99.90;15.60;96940.00;;;;5032048;28;20241;-70
2022/09/01 02:44:22;;;;;;;6.47;4.33;;;14.40;99.90;15.60;96953.00;;;;5033000;28;20204;-70
2022/09/01 02:47:11;;;;;;;5.87;4.77;;;14.40;99.90;15.50;96944.00;;;;5030645;28;20602;-70
2022/09/01 02:50:02;;;;;;;4.80;4.10;;;14.40;99.90;15.40;96941.00;;;;5039083;28;20189;-70
2022/09/01 02:52:52;;;;;;;3.53;3.23;;;14.30;99.90;15.50;96943.00;;;;5046429;28;20215;-70
2022/09/01 02:55:42;;;;;;;4.20;3.80;;;14.30;99.90;15.40;96946.00;;;;5039043;28;20228;-70
2022/09/01 02:58:41;;;;;;;4.37;3.97;;;14.20;99.90;15.40;96934.00;;;;5043630;28;20205;-69
2022/09/01 03:01:32;;;;;;;4.60;3.70;;;14.20;99.90;15.40;96937.00;;;;5045601;28;20193;-69
2022/09/01 03:04:23;;;;;;;4.73;3.97;;;14.20;99.90;15.30;96933.00;;;;5042718;28;20215;-69
2022/09/01 03:07:17;;;;;;;4.63;4.13;;;14.10;99.90;15.10;96939.00;;;;5042071;28;20225;-69
2022/09/01 03:10:08;;;;;;;4.53;4.10;;;14.10;99.90;15.20;96929.00;;;;5031147;28;20205;-69
2022/09/01 03:12:57;;;;;;;5.00;4.47;;;14.10;99.90;15.10;96937.00;;;;5035243;28;20211;-70
2022/09/01 03:15:46;;;;;;;6.67;4.27;;;14.00;99.90;15.10;96940.00;;;;5041940;28;20217;-70
2022/09/01 03:18:35;;;;;;;7.07;4.37;;;14.00;99.90;15.00;96938.00;;;;5030149;28;20236;-70
2022/09/01 03:21:24;;;;;;;4.47;4.07;;;13.90;99.90;14.90;96928.00;;;;5040656;28;20197;-70
2022/09/01 03:24:17;;;;;;;4.60;4.30;;;13.80;99.90;14.90;96937.00;;;;5031600;28;20194;-70
2022/09/01 03:27:10;;;;;;;6.87;4.60;;;13.80;99.90;14.90;96921.00;;;;5032396;28;20225;-70
2022/09/01 03:29:59;;;;;;;6.00;4.57;;;13.80;99.90;14.80;96930.00;;;;5035012;28;20205;-69
2022/09/01 03:32:48;;;;;;;4.93;4.53;;;13.70;99.90;14.80;96931.00;;;;5032251;28;20200;-69
2022/09/01 03:35:37;;;;;;;5.97;4.77;;;13.70;99.90;14.70;96924.00;;;;5041660;28;20224;-70
2022/09/01 03:38:26;;;;;;;3.93;3.63;;;13.70;99.90;14.70;96924.00;;;;5028970;28;20221;-70
2022/09/01 03:41:20;;;;;;;7.30;4.87;;;13.60;99.90;14.70;96924.00;;;;5037085;28;20212;-70
2022/09/01 03:44:10;;;;;;;5.30;4.80;;;13.60;99.90;14.80;96921.00;;;;5037404;28;20890;-70
2022/09/01 03:47:00;;;;;;;5.90;4.63;;;13.60;99.90;14.80;96924.00;;;;5041288;28;20219;-69
2022/09/01 03:49:49;;;;;;;4.97;4.53;;;13.60;99.90;14.60;96930.00;;;;5031150;28;20193;-69
2022/09/01 03:52:39;;;;;;;4.83;4.30;;;13.60;99.90;14.70;96925.00;;;;5033547;28;20189;-70
2022/09/01 03:55:33;;;;;;;4.73;4.40;;;13.60;99.90;14.70;96923.00;;;;5046107;28;20190;-70
2022/09/01 03:58:24;;;;;;;5.17;4.67;;;13.60;99.90;14.60;96920.00;;;;5044438;28;20582;-69
2022/09/01 04:01:15;;;;;;;4.47;4.10;;;13.50;99.90;14.70;96927.00;;;;5044514;28;20208;-70
2022/09/01 04:04:05;;;;;;;7.30;4.57;;;13.50;99.90;14.80;96928.00;;;;5036339;28;20278;-69
2022/09/01 04:06:54;;;;;;;5.60;5.10;;;13.60;99.90;14.70;96925.00;;;;5048790;28;20243;-69
2022/09/01 04:09:43;;;;;;;4.73;4.33;;;13.50;99.90;14.40;96919.00;;;;5027940;28;20197;-69
2022/09/01 04:12:32;;;;;;;5.30;4.70;;;13.50;99.90;14.50;96923.00;;;;5033187;28;20212;-70
2022/09/01 04:15:22;;;;;;;5.03;4.53;;;13.50;99.90;14.40;96922.00;;;;5048335;28;20557;-69
2022/09/01 04:18:18;;;;;;;5.07;4.67;;;13.40;99.90;14.50;96919.00;;;;5048160;28;20710;-69
2022/09/01 04:21:07;;;;;;;5.47;4.97;;;13.40;99.90;14.60;96926.00;;;;5059005;28;20216;-70
2022/09/01 04:24:04;;;;;;;6.17;4.73;;;13.40;99.90;14.40;96918.00;;;;5047391;28;20212;-68
2022/09/01 04:26:53;;;;;;;4.93;4.43;;;13.40;99.90;14.70;96922.00;;;;5047556;28;20217;-70
2022/09/01 04:29:42;;;;;;;6.23;4.53;;;13.40;99.90;14.60;96923.00;;;;5044156;28;20212;-70
2022/09/01 04:32:33;;;;;;;5.20;4.70;;;13.50;99.90;14.70;96926.00;;;;5043564;28;20201;-69
2022/09/01 04:35:31;;;;;;;5.57;5.07;;;13.50;99.90;14.90;96916.00;;;;5044106;28;20200;-69
2022/09/01 04:38:20;;;;;;;5.20;4.70;;;13.50;99.90;14.90;96910.00;;;;5040425;28;20226;-70
2022/09/01 04:41:15;;;;;;;8.33;5.43;;;13.60;99.90;14.90;96904.00;;;;5047393;28;20193;-69
2022/09/01 04:44:06;;;;;;;5.83;5.23;;;13.60;99.90;14.70;96897.00;;;;5028384;28;20200;-69
2022/09/01 04:46:55;;;;;;;5.23;4.83;;;13.60;99.90;14.70;96901.00;;;;5027294;28;20221;-70
2022/09/01 04:49:47;;;;;;;6.07;5.07;;;13.60;99.90;15.00;96909.00;;;;5043031;28;20676;-70
2022/09/01 04:52:36;;;;;;;6.63;6.03;;;13.60;99.90;15.10;96902.00;;;;5047216;28;20201;-70
2022/09/01 04:55:27;;;;;;;6.83;6.23;;;14.20;99.90;15.20;96909.00;;;;5049062;28;20197;-70
2022/09/01 04:58:18;;;;;;;6.10;5.50;;;13.80;99.90;15.30;96908.00;;;;5036086;28;20217;-70
2022/09/01 05:01:14;;;;;;;5.50;5.10;;;13.80;99.90;15.20;96908.00;;;;5043711;28;20208;-69
2022/09/01 05:04:04;;;;;;;6.57;5.43;;;13.90;99.90;15.30;96906.00;;;;5039528;28;20211;-68
2022/09/01 05:06:59;;;;;;;5.10;4.70;;;14.00;99.90;15.40;96914.00;;;;5038745;28;20228;-69
2022/09/01 05:09:48;;;;;;;5.90;5.23;;;14.00;99.90;15.40;96905.00;;;;5044562;28;20212;-70
2022/09/01 05:12:37;;;;;;;12.17;4.90;;;14.10;99.90;15.40;96906.00;;;;5050898;28;20205;-70
2022/09/01 05:15:25;;;;;;;6.37;4.83;;;14.10;99.90;15.30;96894.00;;;;5051587;28;20594;-68
2022/09/01 05:18:22;;;;;;;5.87;5.37;;;14.20;99.90;15.30;96902.00;;;;5047714;28;20221;-70
2022/09/01 05:21:11;;;;;;;5.37;4.83;;;14.20;99.90;15.30;96898.00;;;;5044766;28;20193;-69
2022/09/01 05:24:02;;;;;;;5.73;5.23;;;14.20;99.90;15.20;96893.00;;;;5049344;28;20220;-69
2022/09/01 05:26:51;;;;;;;9.57;5.03;;;14.20;99.90;15.20;96897.00;;;;5049158;28;20236;-69
2022/09/01 05:29:40;;;;;;;9.40;6.27;;;14.20;99.90;15.10;96887.00;;;;5040914;28;20273;-70
2022/09/01 05:32:31;;;;;;;6.97;5.73;;;14.20;99.90;15.20;96887.00;;;;5042430;28;20215;-69
2022/09/01 05:35:23;;;;;;;7.10;5.67;;;14.20;99.90;15.80;96890.00;;;;5046281;28;20196;-70
2022/09/01 05:38:14;;;;;;;6.97;6.03;;;14.30;99.90;16.10;96890.00;;;;5047412;28;20213;-70
2022/09/01 05:41:07;;;;;;;10.77;6.07;;;;;16.40;96891.00;;;;5049144;28;20275;-69
2022/09/01 05:43:56;;;;;;;6.83;6.13;;;14.70;99.90;16.70;96897.00;;;;5048663;28;20208;-70
2022/09/01 05:46:48;;;;;;;5.83;5.30;;;14.90;99.90;16.80;96876.00;;;;5049483;28;20232;-69
2022/09/01 05:49:38;;;;;;;6.10;5.60;;;15.10;99.90;16.70;96888.00;;;;5044399;28;20196;-69
2022/09/01 05:52:28;;;;;;;7.80;5.60;;;15.30;99.90;17.20;96893.00;;;;5048042;28;20188;-69
2022/09/01 05:55:17;;;;;;;5.37;4.50;;;15.40;99.90;17.30;96885.00;;;;5049438;28;20208;-69
2022/09/01 05:58:12;;;;;;;5.03;4.57;;;15.60;99.90;17.80;96891.00;;;;5047197;28;20200;-69
2022/09/01 06:01:02;;;;;;;4.60;4.10;;;15.80;99.90;17.80;96893.00;;;;5037950;28;20343;-69
2022/09/01 06:03:53;;;;;;;5.43;4.10;;;16.10;99.90;18.00;96891.00;;;;5048373;28;20343;-69
2022/09/01 06:06:46;;;;;;;7.27;4.13;;;16.20;99.90;18.00;96885.00;;;;5045705;28;20232;-69
2022/09/01 06:09:52;;;;;;;4.33;3.90;;;16.40;99.90;18.10;96880.00;;;;5049750;28;20258;-68
2022/09/01 06:12:41;;;;;;;3.20;3.00;;;16.50;99.90;18.50;96886.00;;;;5047484;28;20204;-69
2022/09/01 06:15:32;;;;;;;4.13;3.83;;;16.70;99.90;18.50;96884.00;;;;5039898;28;20200;-69
2022/09/01 06:18:22;;;;;;;4.87;3.60;;;16.80;99.90;18.40;96886.00;;;;5048783;28;20197;-70
2022/09/01 06:21:13;;;;;;;3.93;3.60;;;16.90;99.90;18.80;96885.00;;;;5030412;28;20262;-68
2022/09/01 06:24:05;;;;;;;4.33;3.93;;;17.00;99.90;19.00;96887.00;;;;5039773;28;20197;-69
2022/09/01 06:26:54;;;;;;;3.17;2.87;;;17.10;99.90;18.60;96905.00;;;;5033995;28;20228;-69
2022/09/01 06:29:44;;;;;;;4.73;2.77;;;17.20;99.90;18.50;96902.00;;;;5041297;28;20223;-68
2022/09/01 06:32:37;;;;;;;3.13;2.80;;;17.20;99.90;18.50;96905.00;;;;5032806;28;20197;-69
2022/09/01 06:35:28;;;;;;;3.40;3.10;;;17.20;99.90;18.50;96904.00;;;;5034103;28;20577;-68
2022/09/01 06:38:18;;;;;;;3.07;2.73;;;17.20;99.90;18.30;96908.00;;;;5038836;28;20581;-69
2022/09/01 06:41:08;;;;;;;2.73;2.53;;;17.10;99.90;18.40;96912.00;;;;5045764;28;20201;-68
2022/09/01 06:43:58;;;;;;;5.43;3.30;;;17.00;99.90;18.40;96919.00;;;;5044700;28;20211;-69
2022/09/01 06:46:47;;;;;;;3.47;3.17;;;17.00;99.90;18.40;96911.00;;;;5048708;28;20228;-70
2022/09/01 06:49:39;;;;;;;3.27;2.97;;;17.00;99.90;18.10;96913.00;;;;5037490;28;20197;-69
2022/09/01 06:52:28;;;;;;;3.33;2.87;;;16.90;99.90;17.90;96920.00;;;;5034830;28;20204;-69
2022/09/01 06:55:38;;;;;;;2.77;2.57;;;16.80;99.90;18.00;96917.00;;;;5035357;28;20209;-69
2022/09/01 06:58:28;;;;;;;3.10;2.50;;;16.70;99.90;18.00;96929.00;;;;5047860;28;20200;-69
2022/09/01 07:01:19;;;;;;;2.90;2.70;;;16.70;99.90;18.00;96929.00;;;;5029667;28;20543;-69
2022/09/01 07:04:09;;;;;;;3.20;2.37;;;16.70;99.90;17.80;96924.00;;;;5045218;28;20212;-69
2022/09/01 07:07:08;;;;;;;3.07;2.80;;;16.60;99.90;18.00;96934.00;;;;5048389;28;20220;-68
2022/09/01 07:10:21;;;;;;;2.63;2.43;;;16.60;99.90;18.20;96928.00;;;;5037224;28;20208;-69
2022/09/01 07:13:10;;;;;;;2.70;2.50;;;16.60;99.90;18.30;96928.00;;;;5038246;28;20719;-69
2022/09/01 07:15:58;;;;;;;2.90;2.60;;;16.70;99.90;18.40;96939.00;;;;5039022;28;20221;-70
2022/09/01 07:19:13;;;;;;;3.60;2.47;;;16.80;99.90;18.70;96935.00;;;;5046196;28;20317;-69
2022/09/01 07:22:05;;;;;;;2.43;2.13;;;16.90;99.90;18.90;96940.00;;;;5039619;28;20209;-69
2022/09/01 07:24:56;;;;;;;2.63;2.43;;;17.10;99.90;19.10;96941.00;;;;5045509;28;20671;-68
2022/09/01 07:27:58;;;;;;;2.50;2.33;;;17.30;99.90;19.00;96932.00;;;;5036158;28;20203;-68
2022/09/01 07:30:52;;;;;;;2.97;2.73;;;17.50;99.90;19.40;96933.00;;;;5044218;28;20200;-70
2022/09/01 07:33:42;;;;;;;2.53;2.13;;;17.70;99.90;19.00;96930.00;;;;5035171;28;20554;-69
2022/09/01 07:36:32;;;;;;;2.50;2.30;;;17.80;99.90;19.30;96933.00;;;;5041347;28;20258;-69
2022/09/01 07:39:23;;;;;;;2.30;2.10;;;17.90;99.90;19.70;96931.00;;;;5035225;28;20749;-69
2022/09/01 07:42:32;;;;;;;2.63;1.90;;;18.00;99.90;19.40;96937.00;;;;5043961;28;20192;-69
2022/09/01 07:45:48;;;;;;;3.77;2.40;;;18.10;99.90;19.80;96934.00;;;;5041663;28;20350;-70
2022/09/01 07:48:47;;;;;;;2.73;2.53;;;18.20;99.90;20.10;96951.00;;;;5048083;28;20205;-69
2022/09/01 07:51:57;;;;;;;5.07;3.30;;;18.40;99.90;20.40;96945.00;;;;5037142;28;20196;-70
2022/09/01 07:54:47;;;;;;;2.30;1.90;;;18.60;99.90;20.30;96939.00;;;;5047043;28;20201;-70
2022/09/01 07:57:36;;;;;;;2.80;2.60;;;18.70;99.90;20.50;96949.00;;;;5032903;28;20227;-70
2022/09/01 08:00:27;;;;;;;2.53;2.20;;;18.80;99.90;20.60;96935.00;;;;5039642;28;20216;-70
2022/09/01 08:03:18;;;;;;;2.10;2.00;;;18.90;99.90;20.80;96945.00;;;;5046064;28;20584;-70
2022/09/01 08:06:10;;;;;;;2.37;2.17;;;19.10;99.90;20.90;96940.00;;;;5046118;28;20232;-69
2022/09/01 08:09:00;;;;;;;2.93;2.40;;;19.20;99.90;21.00;96942.00;;;;5033057;28;20203;-70
2022/09/01 08:11:51;;;;;;;2.93;2.03;;;19.30;99.90;20.90;96942.00;;;;5035415;28;20213;-70
2022/09/01 08:14:51;;;;;;;2.43;1.77;;;19.40;99.90;20.50;96937.00;;;;5036553;28;20280;-71
2022/09/01 08:18:00;;;;;;;3.43;1.93;;;19.40;99.90;21.20;96946.00;;;;5041984;28;20208;-71
2022/09/01 08:20:48;;;;;;;1.50;1.30;;;19.40;99.90;20.40;96957.00;;;;5042979;28;20259;-70
2022/09/01 08:23:37;;;;;;;2.10;1.80;;;19.40;99.90;20.30;96952.00;;;;5045001;28;20200;-71
2022/09/01 08:26:27;;;;;;;3.93;1.83;;;19.30;99.90;20.70;96948.00;;;;5039456;28;20229;-70
2022/09/01 08:29:17;;;;;;;2.70;1.77;;;19.30;99.90;20.50;96951.00;;;;5039400;28;20204;-70
2022/09/01 08:32:06;;;;;;;3.00;2.00;;;19.30;99.90;20.40;96945.00;;;;5046692;28;20211;-70
2022/09/01 08:34:55;;;;;;;2.30;1.70;;;19.40;99.90;20.90;96954.00;;;;5040688;28;20667;-70
2022/09/01 08:37:44;;;;;;;3.07;2.23;;;19.50;99.90;21.40;96950.00;;;;5097270;22;20242;-70
2022/09/01 08:40:33;;;;;;;3.00;2.00;;;19.70;99.90;21.70;96960.00;;;;5078830;28;20227;-69
2022/09/01 08:43:42;;;;;;;1.43;1.33;;;19.90;99.90;21.60;96957.00;;;;5079357;28;20195;-70
2022/09/01 08:46:36;;;;;;;1.63;1.53;;;20.10;99.90;21.80;96966.00;;;;5075657;28;20227;-70
2022/09/01 08:49:26;;;;;;;1.57;1.47;;;20.20;99.90;21.50;96967.00;;;;5056686;28;20678;-69
2022/09/01 08:52:25;;;;;;;3.27;1.73;;;20.30;99.90;21.90;96958.00;;;;5060463;28;20257;-71
2022/09/01 08:55:20;;;;;;;1.97;1.57;;;20.30;99.90;21.50;96962.00;;;;5063049;28;20212;-71
2022/09/01 08:58:12;;;;;;;1.53;1.43;;;20.40;99.90;22.00;96958.00;;;;5060152;28;20692;-75
2022/09/01 09:01:06;;;;;;;3.07;1.70;;;20.50;99.90;22.50;96967.00;;;;5065031;28;20605;-71
2022/09/01 09:04:14;;;;;;;3.53;1.50;;;20.70;99.90;21.90;96957.00;;;;5054952;28;20197;-70
2022/09/01 09:07:10;;;;;;;2.80;1.40;;;20.70;99.90;22.00;96953.00;;;;5067379;28;20714;-71
2022/09/01 09:10:09;;;;;;;5.43;2.00;;;20.70;99.90;22.60;96949.00;;;;5067373;28;20200;-70
2022/09/01 09:13:10;;;;;;;3.67;1.57;;;20.80;99.90;22.60;96946.00;;;;5059683;28;20665;-68
2022/09/01 09:16:03;;;;;;;1.93;1.40;;;21.00;99.90;22.30;96955.00;;;;5064337;28;20702;-71
2022/09/01 09:19:05;;;;;;;2.83;1.60;;;21.00;99.20;21.80;96939.00;;;;5053491;28;20664;-71
2022/09/01 09:21:56;;;;;;;1.80;1.50;;;21.00;99.90;22.90;96939.00;;;;5062685;28;20722;-70
2022/09/01 09:24:51;;;;;;;1.60;1.40;;;21.10;99.90;22.90;96946.00;;;;5064404;28;20223;-70
2022/09/01 09:27:43;;;;;;;3.47;1.17;;;21.30;99.90;22.80;96946.00;;;;5057055;28;20707;-71
2022/09/01 09:30:32;;;;;;;1.80;1.70;;;21.30;99.30;21.90;96942.00;;;;5058718;28;20216;-70
2022/09/01 09:33:36;;;;;;;2.63;1.30;;;21.30;97.70;22.30;96942.00;;;;5062706;28;20207;-70
2022/09/01 09:36:37;;;;;;;1.73;1.30;;;21.20;97.30;22.90;96946.00;;;;5060673;28;20265;-71
2022/09/01 09:39:27;;;;;;;3.63;1.50;;;21.30;97.80;22.70;96945.00;;;;5059111;28;20574;-70
2022/09/01 09:42:16;;;;;;;2.17;1.57;;;21.40;96.60;22.60;96943.00;;;;5066357;28;20222;-68
2022/09/01 09:45:21;;;;;;;2.87;1.37;;;21.40;96.50;23.60;96944.00;;;;5059894;28;20675;-71
2022/09/01 09:48:27;;;;;;;1.13;1.03;;;21.60;97.50;23.40;96944.00;;;;5066094;28;20203;-72
2022/09/01 09:51:20;;;;;;;2.37;1.30;;;21.80;95.90;23.70;96944.00;;;;5065601;28;20707;-71
2022/09/01 09:54:23;;;;;;;1.47;1.37;;;22.00;95.40;22.20;96935.00;;;;5067006;28;20579;-73
2022/09/01 09:57:16;;;;;;;2.00;1.30;;;21.80;92.70;22.50;96941.00;;;;5061820;28;20244;-70
2022/09/01 10:00:08;;;;;;;5.73;1.50;;;21.80;93.00;23.10;96945.00;;;;5065703;28;20200;-69
2022/09/01 10:03:01;;;;;;;1.30;1.20;;;21.80;92.70;23.70;96928.00;;;;5063338;28;20285;-69
2022/09/01 10:05:51;;;;;;;0.87;0.87;;;21.90;94.50;24.20;96928.00;;;;5056670;28;20694;-71
2022/09/01 10:08:46;;;;;;;3.10;1.30;;;22.20;94.10;24.60;96922.00;;;;5058201;28;20208;-69
2022/09/01 10:11:41;;;;;;;2.17;1.10;;;22.50;94.40;24.10;96908.00;;;;5066403;28;20219;-71
2022/09/01 10:14:36;;;;;;;1.47;1.20;;;22.60;92.30;23.80;96909.00;;;;5066255;28;20556;-69
2022/09/01 10:17:40;;;;;;;1.13;1.03;;;22.70;92.20;22.60;96901.00;;;;5065805;28;20211;-69
2022/09/01 10:20:31;;;;;;;1.40;1.30;;;22.60;90.30;23.10;96901.00;;;;5058937;28;20265;-69
2022/09/01 10:23:20;;;;;;;2.53;1.40;;;22.50;90.60;23.90;96899.00;;;;5060961;28;20196;-71
2022/09/01 10:26:15;;;;;;;2.17;1.50;;;22.50;90.50;23.50;96888.00;;;;5065717;28;20220;-70
2022/09/01 10:29:13;;;;;;;1.73;1.40;;;22.50;91.20;25.00;96889.00;;;;5064519;28;20196;-70
2022/09/01 10:32:08;;;;;;;2.30;1.20;;;22.80;91.30;25.00;96893.00;;;;5063787;28;20220;-71
2022/09/01 10:35:22;;;;;;;1.60;1.00;;;23.20;90.60;24.10;96892.00;;;;5067175;28;20200;-71
2022/09/01 10:38:17;;;;;;;4.47;1.90;;;23.30;87.20;24.70;96887.00;;;;5060758;28;20207;-71
2022/09/01 10:41:10;;;;;;;1.67;1.00;;;23.30;87.90;24.20;96882.00;;;;5065701;28;20201;-73
2022/09/01 10:44:11;;;;;;;1.33;1.20;;;23.40;86.00;25.40;96887.00;;;;5064702;28;20675;-70
2022/09/01 10:47:04;;;;;;;5.13;1.10;;;23.60;88.20;25.60;96877.00;;;;5062021;28;20239;-69
2022/09/01 10:50:04;;;;;;;3.53;1.60;;;23.70;87.50;25.90;96880.00;;;;5061449;28;20211;-69
2022/09/01 10:53:07;;;;;;;1.43;1.20;;;23.90;86.20;25.80;96882.00;;;;5051618;28;20291;-69
2022/09/01 10:56:05;;;;;;;2.00;1.07;;;24.10;82.10;26.10;96892.00;;;;5061596;28;20197;-69
2022/09/01 10:59:11;;;;;;;2.43;1.27;;;24.40;82.50;26.40;96890.00;;;;5062719;28;20238;-69
2022/09/01 11:02:20;;;;;;;1.60;0.97;;;24.50;81.80;25.60;96883.00;;;;5062307;28;20289;-69
2022/09/01 11:05:16;;;;;;;2.03;0.77;;;24.40;81.60;26.10;96888.00;;;;5061919;28;20212;-69
2022/09/01 11:08:24;;;;;;;1.27;1.17;;;24.60;79.80;26.00;96886.00;;;;5055037;28;20203;-69
2022/09/01 11:11:29;;;;;;;1.90;1.10;;;24.70;77.90;25.80;96877.00;;;;5057415;28;20669;-70
2022/09/01 11:14:25;;;;;;;2.70;1.30;;;24.60;75.00;25.60;96882.00;;;;5061264;28;20665;-70
2022/09/01 11:17:20;;;;;;;1.03;0.90;;;24.60;75.80;26.00;96873.00;;;;5066225;28;20729;-71
2022/09/01 11:20:20;;;;;;;1.50;1.10;;;24.70;75.70;26.10;96883.00;;;;5058939;28;20583;-70
2022/09/01 11:23:20;;;;;;;1.20;0.80;;;24.90;73.90;27.40;96895.00;;;;5059595;28;20975;-70
2022/09/01 11:26:46;;;;;;;2.63;0.90;;;25.10;74.20;27.60;96901.00;;;;5062186;28;20216;-71
2022/09/01 11:29:57;;;;;;;2.07;0.70;;;25.50;74.20;27.20;96880.00;;;;5058223;28;20210;-69
2022/09/01 11:32:52;;;;;;;2.60;0.90;;;25.50;71.70;28.30;96889.00;;;;5059584;28;20235;-71
2022/09/01 11:35:44;;;;;;;2.23;1.10;;;26.10;71.60;26.30;96878.00;;;;5057375;28;20197;-72
2022/09/01 11:38:50;;;;;;;1.10;1.00;;;25.90;70.00;26.90;96876.00;;;;5066062;28;20202;-70
2022/09/01 11:41:52;;;;;;;2.13;1.20;;;25.90;68.00;26.10;96879.00;;;;5066898;28;20668;-70
2022/09/01 11:44:49;;;;;;;0.87;0.77;;;25.60;65.50;26.40;96872.00;;;;5056980;28;20290;-70
2022/09/01 11:47:42;;;;;;;2.27;0.87;;;25.50;66.30;28.10;96867.00;;;;5058068;28;20223;-70
2022/09/01 11:50:34;;;;;;;1.03;0.90;;;25.70;69.40;28.80;96871.00;;;;5058681;28;20202;-72
2022/09/01 11:53:24;;;;;;;1.93;1.20;;;26.20;68.60;27.40;96874.00;;;;5059011;28;20207;-70
2022/09/01 11:56:20;;;;;;;2.30;1.00;;;26.40;67.50;27.50;96896.00;;;;5057953;28;20234;-71
2022/09/01 11:59:11;;;;;;;1.20;1.10;;;26.40;64.90;27.30;96922.00;;;;5066378;28;20217;-70
2022/09/01 12:02:00;;;;;;;1.47;0.90;;;26.30;63.70;26.60;96887.00;;;;5065936;28;20211;-70
2022/09/01 12:04:52;;;;;;;1.53;1.00;;;26.00;63.70;27.20;96899.00;;;;5064238;28;20206;-69
2022/09/01 12:07:44;;;;;;;0.90;0.87;;;25.90;65.80;26.80;96907.00;;;;5054308;28;20222;-70
2022/09/01 12:10:37;;;;;;;1.37;0.90;;;25.70;66.90;25.80;96914.00;;;;5063304;28;20214;-69
2022/09/01 12:13:25;;;;;;;1.17;0.97;;;25.40;63.60;26.20;96905.00;;;;5062842;28;20231;-70
2022/09/01 12:16:21;;;;;;;0.90;0.90;;;25.30;65.50;26.50;96914.00;;;;5063097;28;20229;-68
2022/09/01 12:19:24;;;;;;;3.40;1.07;;;25.10;66.00;26.30;96917.00;;;;5067067;28;20211;-70
2022/09/01 12:22:20;;;;;;;10.37;3.63;;;25.00;67.00;26.10;96920.00;;;;5058444;28;20192;-68
2022/09/01 12:25:22;;;;;;;8.23;2.93;;;24.90;66.80;26.10;96923.00;;;;5063397;28;20205;-71
2022/09/01 12:28:11;;;;;;;1.80;1.70;;;24.70;67.20;25.10;96916.00;;;;5063425;28;20254;-70
2022/09/01 12:31:04;;;;;;;1.60;1.00;;;24.50;65.60;25.20;96917.00;;;;5067513;28;20221;-70
2022/09/01 12:33:55;;;;;;;3.70;1.00;;;24.20;67.00;25.40;96910.00;;;;5061155;28;20249;-70
2022/09/01 12:36:43;;;;;;;3.40;1.00;;;24.00;68.90;25.80;96919.00;;;;5067796;28;20239;-70
2022/09/01 12:39:40;;;;;;;0.80;0.80;;;24.10;69.80;25.20;96908.00;;;;5057586;28;20875;-71
2022/09/01 12:42:32;;;;;;;4.13;1.50;;;24.10;64.90;25.40;96910.00;;;;5065310;28;20195;-69
2022/09/01 12:45:44;;;;;;;1.20;1.03;;;24.10;64.80;25.00;96918.00;;;;5067343;28;20201;-69
2022/09/01 12:48:36;;;;;;;1.30;0.90;;;24.10;65.30;25.90;96919.00;;;;5062760;28;20194;-70
2022/09/01 12:51:25;;;;;;;1.70;0.80;;;24.10;67.70;24.90;96918.00;;;;5069757;28;21021;-70
2022/09/01 12:54:25;;;;;;;0.90;0.90;;;23.90;66.20;24.50;96925.00;;;;5069341;28;20198;-71